Main page
METAR-TAF:

METAR-TAF

Airports :

Weeze, Germany

Weeze Airport

latitude: 51-36-09N, longitude: 006-08-32E, elevation: 32 m

Current weather observation

The report was made 28 minutes ago, at 03:50 UTC
Wind 10 kt from the Southwest
Temperature 10°C
Humidity 82%
Pressure 1015 hPa
Visibility 10 km or more
Broken clouds at a height of 3800 ft

METAR: EDLV 230350Z 23010KT 9999 BKN038 10/07 Q1015

Time: 06:18 (04:18 UTC)

Forecast

The report was made 28 minutes ago, at 03:50 UTC
Forecast valid from 23 at 04 UTC to 23 at 24 UTC
Wind 12 kt from the West/Southwest
Visibility 10 km or more
Broken clouds at a height of 3000 ft
Temporary
from 23 at 10 UTC to 23 at 13 UTC
Wind 15 kt from the West with gusts up to 25 kt
Becoming
from 23 at 17 UTC to 23 at 20 UTC
Wind 5 kt from the South/Southwest

TAF: EDLV 230350Z 2304/2324 25012KT 9999 BKN030 TEMPO 2310/2313 26015G25KT BECMG 2317/2320 20005KT

Weather observations and forecasts of more than 4000 airports (METAR and TAF reports).

The available stations are represented by yellow and red dots on the map.

Hover mouse over dot to see the name of the station.

Then click to see weather observations and forecasts.

To change the map : click on the green buttons with a black cross to zoom in, on the green button with a dash to zoom out, or on the green arrows for adjacent maps.


METAR-TAF: